sensor_id;sensor_type;location;lat;lon;timestamp;P1;durP1;ratioP1;P2;durP2;ratioP2
25868;SDS011;13688;53.154;18.136;2023-03-01T00:01:05;94.70;;;39.93;;
25868;SDS011;13688;53.154;18.136;2023-03-01T00:06:38;97.10;;;40.03;;
25868;SDS011;13688;53.154;18.136;2023-03-01T00:12:03;96.30;;;39.83;;
25868;SDS011;13688;53.154;18.136;2023-03-01T00:17:27;111.85;;;43.00;;
25868;SDS011;13688;53.154;18.136;2023-03-01T00:22:51;101.87;;;40.38;;
25868;SDS011;13688;53.154;18.136;2023-03-01T00:28:16;98.12;;;40.05;;
25868;SDS011;13688;53.154;18.136;2023-03-01T00:33:42;94.20;;;38.28;;
25868;SDS011;13688;53.154;18.136;2023-03-01T00:39:13;85.75;;;35.55;;
25868;SDS011;13688;53.154;18.136;2023-03-01T00:44:37;89.77;;;36.10;;
25868;SDS011;13688;53.154;18.136;2023-03-01T00:50:03;87.80;;;35.60;;
25868;SDS011;13688;53.154;18.136;2023-03-01T00:55:28;66.37;;;28.53;;
25868;SDS011;13688;53.154;18.136;2023-03-01T01:00:53;67.87;;;28.23;;
25868;SDS011;13688;53.154;18.136;2023-03-01T01:06:27;64.97;;;27.80;;
25868;SDS011;13688;53.154;18.136;2023-03-01T01:11:50;75.50;;;30.97;;
25868;SDS011;13688;53.154;18.136;2023-03-01T01:17:15;86.80;;;35.20;;
25868;SDS011;13688;53.154;18.136;2023-03-01T01:22:40;90.93;;;35.23;;
25868;SDS011;13688;53.154;18.136;2023-03-01T01:28:06;89.47;;;36.03;;
25868;SDS011;13688;53.154;18.136;2023-03-01T01:33:30;87.55;;;34.73;;
25868;SDS011;13688;53.154;18.136;2023-03-01T01:38:55;84.75;;;35.17;;
25868;SDS011;13688;53.154;18.136;2023-03-01T01:44:20;76.33;;;31.33;;
25868;SDS011;13688;53.154;18.136;2023-03-01T01:49:52;86.55;;;35.10;;
25868;SDS011;13688;53.154;18.136;2023-03-01T01:55:20;77.27;;;32.20;;
25868;SDS011;13688;53.154;18.136;2023-03-01T02:00:45;82.35;;;33.45;;
25868;SDS011;13688;53.154;18.136;2023-03-01T02:06:12;75.03;;;30.82;;
25868;SDS011;13688;53.154;18.136;2023-03-01T02:11:46;73.90;;;30.43;;
25868;SDS011;13688;53.154;18.136;2023-03-01T02:17:11;68.75;;;29.37;;
25868;SDS011;13688;53.154;18.136;2023-03-01T02:22:38;64.62;;;26.97;;
25868;SDS011;13688;53.154;18.136;2023-03-01T02:28:09;73.50;;;29.55;;
25868;SDS011;13688;53.154;18.136;2023-03-01T02:33:36;74.47;;;29.77;;
25868;SDS011;13688;53.154;18.136;2023-03-01T02:39:03;71.45;;;30.02;;
25868;SDS011;13688;53.154;18.136;2023-03-01T02:44:30;73.73;;;29.90;;
25868;SDS011;13688;53.154;18.136;2023-03-01T02:49:55;73.60;;;31.20;;
25868;SDS011;13688;53.154;18.136;2023-03-01T02:55:27;74.53;;;29.85;;
25868;SDS011;13688;53.154;18.136;2023-03-01T03:00:50;72.45;;;31.73;;
25868;SDS011;13688;53.154;18.136;2023-03-01T03:06:17;77.32;;;30.68;;
25868;SDS011;13688;53.154;18.136;2023-03-01T03:11:42;69.72;;;28.87;;
25868;SDS011;13688;53.154;18.136;2023-03-01T03:17:17;66.17;;;28.97;;
25868;SDS011;13688;53.154;18.136;2023-03-01T03:22:42;66.07;;;29.10;;
25868;SDS011;13688;53.154;18.136;2023-03-01T03:28:08;66.57;;;29.63;;
25868;SDS011;13688;53.154;18.136;2023-03-01T03:33:34;74.43;;;32.07;;
25868;SDS011;13688;53.154;18.136;2023-03-01T03:38:57;66.17;;;29.47;;
25868;SDS011;13688;53.154;18.136;2023-03-01T03:44:23;64.83;;;28.80;;
25868;SDS011;13688;53.154;18.136;2023-03-01T03:49:48;71.53;;;29.63;;
25868;SDS011;13688;53.154;18.136;2023-03-01T03:55:11;65.67;;;29.27;;
25868;SDS011;13688;53.154;18.136;2023-03-01T04:00:38;70.40;;;28.90;;
25868;SDS011;13688;53.154;18.136;2023-03-01T04:06:07;72.10;;;31.30;;
25868;SDS011;13688;53.154;18.136;2023-03-01T04:11:32;65.17;;;28.03;;
25868;SDS011;13688;53.154;18.136;2023-03-01T04:16:56;63.03;;;26.80;;
25868;SDS011;13688;53.154;18.136;2023-03-01T04:22:20;63.37;;;27.07;;
25868;SDS011;13688;53.154;18.136;2023-03-01T04:27:45;60.17;;;25.30;;
25868;SDS011;13688;53.154;18.136;2023-03-01T04:33:10;63.87;;;25.97;;
25868;SDS011;13688;53.154;18.136;2023-03-01T04:38:36;63.43;;;26.53;;
25868;SDS011;13688;53.154;18.136;2023-03-01T04:44:02;61.70;;;26.57;;
25868;SDS011;13688;53.154;18.136;2023-03-01T04:49:27;60.20;;;26.73;;
25868;SDS011;13688;53.154;18.136;2023-03-01T04:54:50;65.47;;;28.03;;
25868;SDS011;13688;53.154;18.136;2023-03-01T05:00:15;58.87;;;26.63;;
25868;SDS011;13688;53.154;18.136;2023-03-01T05:05:40;57.63;;;25.13;;
25868;SDS011;13688;53.154;18.136;2023-03-01T05:11:05;57.95;;;25.55;;
25868;SDS011;13688;53.154;18.136;2023-03-01T05:16:31;56.13;;;24.90;;
25868;SDS011;13688;53.154;18.136;2023-03-01T05:21:55;57.03;;;25.07;;
25868;SDS011;13688;53.154;18.136;2023-03-01T05:27:20;58.73;;;24.03;;
25868;SDS011;13688;53.154;18.136;2023-03-01T05:32:47;55.77;;;24.90;;
25868;SDS011;13688;53.154;18.136;2023-03-01T05:38:12;62.10;;;26.00;;
25868;SDS011;13688;53.154;18.136;2023-03-01T05:43:37;55.07;;;25.57;;
25868;SDS011;13688;53.154;18.136;2023-03-01T05:49:02;61.70;;;24.17;;
25868;SDS011;13688;53.154;18.136;2023-03-01T05:54:29;58.47;;;24.23;;
25868;SDS011;13688;53.154;18.136;2023-03-01T05:59:53;52.23;;;22.67;;
25868;SDS011;13688;53.154;18.136;2023-03-01T06:05:18;54.70;;;24.87;;
25868;SDS011;13688;53.154;18.136;2023-03-01T06:10:43;55.60;;;23.87;;
25868;SDS011;13688;53.154;18.136;2023-03-01T06:16:06;55.90;;;23.32;;
25868;SDS011;13688;53.154;18.136;2023-03-01T06:21:31;48.42;;;21.80;;
25868;SDS011;13688;53.154;18.136;2023-03-01T06:26:56;54.77;;;25.40;;
25868;SDS011;13688;53.154;18.136;2023-03-01T06:32:21;52.48;;;23.85;;
25868;SDS011;13688;53.154;18.136;2023-03-01T06:37:47;56.45;;;25.35;;
25868;SDS011;13688;53.154;18.136;2023-03-01T06:43:11;56.50;;;24.20;;
25868;SDS011;13688;53.154;18.136;2023-03-01T06:48:36;56.20;;;24.87;;
25868;SDS011;13688;53.154;18.136;2023-03-01T06:54:00;51.77;;;24.00;;
25868;SDS011;13688;53.154;18.136;2023-03-01T06:59:28;56.83;;;25.47;;
25868;SDS011;13688;53.154;18.136;2023-03-01T07:04:52;56.95;;;25.43;;
25868;SDS011;13688;53.154;18.136;2023-03-01T07:10:16;56.23;;;24.67;;
25868;SDS011;13688;53.154;18.136;2023-03-01T07:15:41;53.25;;;23.42;;
25868;SDS011;13688;53.154;18.136;2023-03-01T07:21:06;55.33;;;23.20;;
25868;SDS011;13688;53.154;18.136;2023-03-01T07:26:31;51.40;;;22.60;;
25868;SDS011;13688;53.154;18.136;2023-03-01T07:31:57;45.57;;;21.43;;
25868;SDS011;13688;53.154;18.136;2023-03-01T07:37:22;45.83;;;19.98;;
25868;SDS011;13688;53.154;18.136;2023-03-01T07:42:45;46.17;;;20.37;;
25868;SDS011;13688;53.154;18.136;2023-03-01T07:48:12;38.00;;;17.87;;
25868;SDS011;13688;53.154;18.136;2023-03-01T07:53:35;42.37;;;19.57;;
25868;SDS011;13688;53.154;18.136;2023-03-01T07:58:58;41.90;;;17.52;;
25868;SDS011;13688;53.154;18.136;2023-03-01T08:04:21;40.63;;;17.48;;
25868;SDS011;13688;53.154;18.136;2023-03-01T08:09:45;37.60;;;18.45;;
25868;SDS011;13688;53.154;18.136;2023-03-01T08:15:07;36.77;;;17.00;;
25868;SDS011;13688;53.154;18.136;2023-03-01T08:20:30;41.83;;;17.83;;
25868;SDS011;13688;53.154;18.136;2023-03-01T08:25:52;37.93;;;16.90;;
25868;SDS011;13688;53.154;18.136;2023-03-01T08:31:28;33.75;;;16.45;;
25868;SDS011;13688;53.154;18.136;2023-03-01T08:36:53;40.53;;;19.80;;
25868;SDS011;13688;53.154;18.136;2023-03-01T08:42:15;40.23;;;17.10;;
25868;SDS011;13688;53.154;18.136;2023-03-01T08:47:39;39.00;;;19.98;;
25868;SDS011;13688;53.154;18.136;2023-03-01T08:53:04;45.15;;;18.62;;
25868;SDS011;13688;53.154;18.136;2023-03-01T08:58:26;35.80;;;16.67;;
25868;SDS011;13688;53.154;18.136;2023-03-01T09:03:49;31.50;;;16.25;;
25868;SDS011;13688;53.154;18.136;2023-03-01T09:09:16;29.27;;;16.60;;
25868;SDS011;13688;53.154;18.136;2023-03-01T09:14:39;30.97;;;14.47;;
25868;SDS011;13688;53.154;18.136;2023-03-01T09:20:01;36.80;;;16.77;;
25868;SDS011;13688;53.154;18.136;2023-03-01T09:25:25;32.03;;;16.10;;
25868;SDS011;13688;53.154;18.136;2023-03-01T09:30:47;31.52;;;15.38;;
25868;SDS011;13688;53.154;18.136;2023-03-01T09:36:15;30.97;;;15.43;;
25868;SDS011;13688;53.154;18.136;2023-03-01T09:47:16;23.07;;;12.23;;
25868;SDS011;13688;53.154;18.136;2023-03-01T09:58:31;25.27;;;13.43;;
25868;SDS011;13688;53.154;18.136;2023-03-01T10:09:54;23.60;;;11.48;;
25868;SDS011;13688;53.154;18.136;2023-03-01T10:15:34;23.77;;;11.83;;
25868;SDS011;13688;53.154;18.136;2023-03-01T10:21:23;27.67;;;11.97;;
25868;SDS011;13688;53.154;18.136;2023-03-01T10:26:43;23.83;;;11.38;;
25868;SDS011;13688;53.154;18.136;2023-03-01T10:32:13;17.53;;;10.50;;
25868;SDS011;13688;53.154;18.136;2023-03-01T10:37:36;20.20;;;9.70;;
25868;SDS011;13688;53.154;18.136;2023-03-01T10:43:14;22.77;;;10.63;;
25868;SDS011;13688;53.154;18.136;2023-03-01T10:48:42;18.93;;;9.60;;
25868;SDS011;13688;53.154;18.136;2023-03-01T10:54:30;18.87;;;10.53;;
25868;SDS011;13688;53.154;18.136;2023-03-01T11:00:19;20.53;;;10.07;;
25868;SDS011;13688;53.154;18.136;2023-03-01T11:05:36;16.83;;;8.83;;
25868;SDS011;13688;53.154;18.136;2023-03-01T11:11:21;16.07;;;9.23;;
25868;SDS011;13688;53.154;18.136;2023-03-01T11:22:45;15.57;;;7.77;;
25868;SDS011;13688;53.154;18.136;2023-03-01T11:28:17;18.42;;;9.35;;
25868;SDS011;13688;53.154;18.136;2023-03-01T11:33:45;13.53;;;7.58;;
25868;SDS011;13688;53.154;18.136;2023-03-01T11:39:20;16.23;;;9.37;;
25868;SDS011;13688;53.154;18.136;2023-03-01T11:45:08;13.80;;;7.53;;
25868;SDS011;13688;53.154;18.136;2023-03-01T11:50:39;14.43;;;8.40;;
25868;SDS011;13688;53.154;18.136;2023-03-01T12:29:54;20.50;;;10.20;;
25868;SDS011;13688;53.154;18.136;2023-03-01T12:59:02;19.20;;;11.22;;
25868;SDS011;13688;53.154;18.136;2023-03-01T13:10:49;20.23;;;11.40;;
25868;SDS011;13688;53.154;18.136;2023-03-01T13:21:57;33.42;;;19.15;;
25868;SDS011;13688;53.154;18.136;2023-03-01T13:27:39;20.52;;;11.50;;
25868;SDS011;13688;53.154;18.136;2023-03-01T13:49:57;21.23;;;11.00;;
25868;SDS011;13688;53.154;18.136;2023-03-01T13:55:45;14.80;;;8.77;;
25868;SDS011;13688;53.154;18.136;2023-03-01T14:01:26;18.87;;;10.43;;
25868;SDS011;13688;53.154;18.136;2023-03-01T14:12:47;18.17;;;11.00;;
25868;SDS011;13688;53.154;18.136;2023-03-01T14:24:18;18.27;;;11.27;;
25868;SDS011;13688;53.154;18.136;2023-03-01T14:29:42;19.33;;;11.13;;
25868;SDS011;13688;53.154;18.136;2023-03-01T14:35:27;20.10;;;11.40;;
25868;SDS011;13688;53.154;18.136;2023-03-01T14:40:51;20.70;;;11.90;;
25868;SDS011;13688;53.154;18.136;2023-03-01T14:52:05;21.10;;;12.53;;
25868;SDS011;13688;53.154;18.136;2023-03-01T14:57:43;17.50;;;11.43;;
25868;SDS011;13688;53.154;18.136;2023-03-01T15:03:08;15.23;;;10.07;;
25868;SDS011;13688;53.154;18.136;2023-03-01T15:08:35;18.27;;;11.40;;
25868;SDS011;13688;53.154;18.136;2023-03-01T15:14:01;19.37;;;10.75;;
25868;SDS011;13688;53.154;18.136;2023-03-01T15:19:52;19.73;;;10.75;;
25868;SDS011;13688;53.154;18.136;2023-03-01T15:25:18;19.07;;;11.40;;
25868;SDS011;13688;53.154;18.136;2023-03-01T15:30:43;16.23;;;10.30;;
25868;SDS011;13688;53.154;18.136;2023-03-01T15:36:32;18.48;;;11.35;;
25868;SDS011;13688;53.154;18.136;2023-03-01T15:41:57;19.27;;;10.63;;
25868;SDS011;13688;53.154;18.136;2023-03-01T15:47:47;17.37;;;10.35;;
25868;SDS011;13688;53.154;18.136;2023-03-01T15:53:10;14.28;;;8.40;;
25868;SDS011;13688;53.154;18.136;2023-03-01T15:58:32;14.47;;;7.47;;
25868;SDS011;13688;53.154;18.136;2023-03-01T16:03:55;12.50;;;6.50;;
25868;SDS011;13688;53.154;18.136;2023-03-01T16:09:27;9.38;;;6.47;;
25868;SDS011;13688;53.154;18.136;2023-03-01T16:14:50;21.17;;;13.38;;
25868;SDS011;13688;53.154;18.136;2023-03-01T16:20:12;11.60;;;6.87;;
25868;SDS011;13688;53.154;18.136;2023-03-01T16:25:36;12.77;;;6.17;;
25868;SDS011;13688;53.154;18.136;2023-03-01T16:30:58;10.60;;;6.65;;
25868;SDS011;13688;53.154;18.136;2023-03-01T16:36:21;10.43;;;6.47;;
25868;SDS011;13688;53.154;18.136;2023-03-01T16:41:44;14.07;;;6.30;;
25868;SDS011;13688;53.154;18.136;2023-03-01T16:47:07;37.25;;;20.37;;
25868;SDS011;13688;53.154;18.136;2023-03-01T16:52:29;12.90;;;6.65;;
25868;SDS011;13688;53.154;18.136;2023-03-01T16:57:52;10.67;;;5.70;;
25868;SDS011;13688;53.154;18.136;2023-03-01T17:03:15;10.40;;;6.80;;
25868;SDS011;13688;53.154;18.136;2023-03-01T17:08:41;12.70;;;7.10;;
25868;SDS011;13688;53.154;18.136;2023-03-01T17:14:04;18.57;;;9.15;;
25868;SDS011;13688;53.154;18.136;2023-03-01T17:19:29;22.07;;;11.57;;
25868;SDS011;13688;53.154;18.136;2023-03-01T17:24:53;21.02;;;11.40;;
25868;SDS011;13688;53.154;18.136;2023-03-01T17:30:18;30.35;;;14.47;;
25868;SDS011;13688;53.154;18.136;2023-03-01T17:35:41;31.90;;;15.03;;
25868;SDS011;13688;53.154;18.136;2023-03-01T17:41:03;18.50;;;9.73;;
25868;SDS011;13688;53.154;18.136;2023-03-01T17:46:29;24.18;;;12.33;;
25868;SDS011;13688;53.154;18.136;2023-03-01T17:51:52;26.77;;;12.57;;
25868;SDS011;13688;53.154;18.136;2023-03-01T17:57:16;21.45;;;10.35;;
25868;SDS011;13688;53.154;18.136;2023-03-01T18:02:41;20.30;;;9.95;;
25868;SDS011;13688;53.154;18.136;2023-03-01T18:08:04;23.22;;;10.72;;
25868;SDS011;13688;53.154;18.136;2023-03-01T18:13:27;17.75;;;8.75;;
25868;SDS011;13688;53.154;18.136;2023-03-01T18:18:54;20.63;;;11.77;;
25868;SDS011;13688;53.154;18.136;2023-03-01T18:24:17;19.17;;;10.47;;
25868;SDS011;13688;53.154;18.136;2023-03-01T18:29:39;30.33;;;15.30;;
25868;SDS011;13688;53.154;18.136;2023-03-01T18:35:02;25.57;;;12.80;;
25868;SDS011;13688;53.154;18.136;2023-03-01T18:40:25;24.37;;;12.70;;
25868;SDS011;13688;53.154;18.136;2023-03-01T18:45:57;27.10;;;13.77;;
25868;SDS011;13688;53.154;18.136;2023-03-01T18:51:26;26.27;;;14.27;;
25868;SDS011;13688;53.154;18.136;2023-03-01T18:56:53;33.77;;;17.20;;
25868;SDS011;13688;53.154;18.136;2023-03-01T19:02:15;29.80;;;15.10;;
25868;SDS011;13688;53.154;18.136;2023-03-01T19:07:38;28.07;;;13.75;;
25868;SDS011;13688;53.154;18.136;2023-03-01T19:13:01;28.30;;;15.17;;
25868;SDS011;13688;53.154;18.136;2023-03-01T19:18:23;25.77;;;14.98;;
25868;SDS011;13688;53.154;18.136;2023-03-01T19:23:46;30.10;;;14.00;;
25868;SDS011;13688;53.154;18.136;2023-03-01T19:29:10;27.67;;;15.10;;
25868;SDS011;13688;53.154;18.136;2023-03-01T19:34:34;29.30;;;15.57;;
25868;SDS011;13688;53.154;18.136;2023-03-01T19:39:56;27.50;;;15.48;;
25868;SDS011;13688;53.154;18.136;2023-03-01T19:45:19;32.28;;;17.07;;
25868;SDS011;13688;53.154;18.136;2023-03-01T19:50:43;35.40;;;17.57;;
25868;SDS011;13688;53.154;18.136;2023-03-01T19:56:08;31.87;;;15.70;;
25868;SDS011;13688;53.154;18.136;2023-03-01T20:01:32;27.40;;;14.85;;
25868;SDS011;13688;53.154;18.136;2023-03-01T20:06:56;45.10;;;24.43;;
25868;SDS011;13688;53.154;18.136;2023-03-01T20:12:21;29.07;;;15.83;;
25868;SDS011;13688;53.154;18.136;2023-03-01T20:17:46;33.97;;;16.30;;
25868;SDS011;13688;53.154;18.136;2023-03-01T20:23:12;27.33;;;15.07;;
25868;SDS011;13688;53.154;18.136;2023-03-01T20:28:37;25.88;;;14.93;;
25868;SDS011;13688;53.154;18.136;2023-03-01T20:34:03;26.35;;;14.30;;
25868;SDS011;13688;53.154;18.136;2023-03-01T20:39:28;29.77;;;15.60;;
25868;SDS011;13688;53.154;18.136;2023-03-01T20:44:52;31.05;;;16.32;;
25868;SDS011;13688;53.154;18.136;2023-03-01T20:50:16;29.17;;;16.77;;
25868;SDS011;13688;53.154;18.136;2023-03-01T20:55:39;27.57;;;15.47;;
25868;SDS011;13688;53.154;18.136;2023-03-01T21:01:04;26.68;;;15.18;;
25868;SDS011;13688;53.154;18.136;2023-03-01T21:06:32;27.37;;;15.00;;
25868;SDS011;13688;53.154;18.136;2023-03-01T21:11:56;27.75;;;14.55;;
25868;SDS011;13688;53.154;18.136;2023-03-01T21:17:21;28.62;;;14.60;;
25868;SDS011;13688;53.154;18.136;2023-03-01T21:22:46;25.97;;;14.58;;
25868;SDS011;13688;53.154;18.136;2023-03-01T21:28:11;29.72;;;16.10;;
25868;SDS011;13688;53.154;18.136;2023-03-01T21:33:38;29.43;;;15.47;;
25868;SDS011;13688;53.154;18.136;2023-03-01T21:39:06;20.87;;;11.63;;
25868;SDS011;13688;53.154;18.136;2023-03-01T21:44:31;31.97;;;15.23;;
25868;SDS011;13688;53.154;18.136;2023-03-01T21:49:55;26.63;;;15.07;;
25868;SDS011;13688;53.154;18.136;2023-03-01T21:55:20;30.00;;;15.93;;
25868;SDS011;13688;53.154;18.136;2023-03-01T22:00:45;33.00;;;16.73;;
25868;SDS011;13688;53.154;18.136;2023-03-01T22:06:18;29.30;;;15.47;;
25868;SDS011;13688;53.154;18.136;2023-03-01T22:11:48;28.83;;;15.03;;
25868;SDS011;13688;53.154;18.136;2023-03-01T22:17:11;29.37;;;15.13;;
25868;SDS011;13688;53.154;18.136;2023-03-01T22:22:33;28.87;;;16.13;;
25868;SDS011;13688;53.154;18.136;2023-03-01T22:27:56;32.87;;;16.67;;
25868;SDS011;13688;53.154;18.136;2023-03-01T22:33:19;29.73;;;17.77;;
25868;SDS011;13688;53.154;18.136;2023-03-01T22:38:41;32.97;;;18.83;;
25868;SDS011;13688;53.154;18.136;2023-03-01T22:44:04;40.30;;;20.10;;
25868;SDS011;13688;53.154;18.136;2023-03-01T22:49:30;40.17;;;22.13;;
25868;SDS011;13688;53.154;18.136;2023-03-01T22:54:54;52.57;;;28.43;;
25868;SDS011;13688;53.154;18.136;2023-03-01T23:00:19;53.50;;;28.83;;
25868;SDS011;13688;53.154;18.136;2023-03-01T23:05:43;52.10;;;28.20;;
25868;SDS011;13688;53.154;18.136;2023-03-01T23:11:13;56.37;;;28.50;;
25868;SDS011;13688;53.154;18.136;2023-03-01T23:16:34;51.77;;;27.50;;
25868;SDS011;13688;53.154;18.136;2023-03-01T23:21:59;48.63;;;26.83;;
25868;SDS011;13688;53.154;18.136;2023-03-01T23:27:23;60.30;;;29.72;;
25868;SDS011;13688;53.154;18.136;2023-03-01T23:32:48;64.10;;;31.02;;
25868;SDS011;13688;53.154;18.136;2023-03-01T23:38:12;64.97;;;30.08;;
25868;SDS011;13688;53.154;18.136;2023-03-01T23:43:35;64.67;;;31.05;;
25868;SDS011;13688;53.154;18.136;2023-03-01T23:49:02;62.03;;;30.63;;
25868;SDS011;13688;53.154;18.136;2023-03-01T23:54:31;62.47;;;31.73;;
25868;SDS011;13688;53.154;18.136;2023-03-01T23:59:55;60.12;;;28.77;;
